Dati Storici

Data ora Umidita' aria (%) Temperatura aria (°C) Rad globale (W/m²) Gonioanemometro (°) Tacoanemometro (m/s) Pioggia (mm)
03-07-2020 22:50 66.7 % 22.197 -78.883 1.146 0 0
03-07-2020 22:40 66.3 % 22.334 -77.791 0.937 0 0
03-07-2020 22:30 65.3 % 22.541 -74.274 0.747 0 0
03-07-2020 22:20 64.5 % 22.691 -75.489 1.344 0 0
03-07-2020 22:10 64 % 22.749 -72.851 1.293 0 0
03-07-2020 22:00 63.9 % 22.687 -74.569 1.324 0 0
03-07-2020 21:50 63.3 % 22.732 -72.363 1.238 0 0
03-07-2020 21:40 63 % 22.946 -76.838 2.036 0 0
03-07-2020 21:30 62.7 % 22.874 -70.669 2.155 0 0
03-07-2020 21:20 61.8 % 23.071 -73.403 -0.023 0 0
03-07-2020 21:10 61.2 % 23.394 -75.267 1.301 0 0
03-07-2020 21:00 61.2 % 23.512 -78.345 1.581 0 0
03-07-2020 20:50 61.8 % 23.49 -80.625 1.571 0 0
03-07-2020 20:40 62.3 % 23.521 -79.752 2.373 0 0
03-07-2020 20:30 62.7 % 23.589 -81.36 1.098 0 0
03-07-2020 20:20 62.6 % 23.837 -61.118 1.525 0 0
03-07-2020 20:10 61.7 % 24.061 -84.254 1.56 0 0
03-07-2020 20:00 60.3 % 24.278 -85.174 1.782 0 0
03-07-2020 19:50 59 % 24.676 -85.406 0.832 0 0
03-07-2020 19:40 57.9 % 24.851 -82.634 2.614 0 0

I dati sono presentati in modo automatico a scopo informativo. In seguito a verifica i dati possono subire modifiche o essere invalidati e non riportati negli archivi definitivi.